Airport View

Enter AWOS ICAO identifier for current METAR.

ex. KFNL

CZPC 120600Z AUTO 24012KT 9SM CLR 00/M06 A2978 RMK SLP122

12 Dec 2019 06:17

Other Area AWOS: CWRT - CWDK - CWFJ - CWSW

TAF CYQL 120545Z 1206/1218 13003KT 6SM IC FEW004 BKN200 TEMPO 1206/1212 1/2SM FZFG VV004 FM121200 22006KT P6SM BKN220 BECMG 1214/1216 22010KT BKN150 FM121700 23012KT P6SM BKN130 RMK FCST BASED ON AUTO OBS. NXT FCST BY 121200Z